createdAt,value
2023-02-15T00:02:05.865Z,23.30
2023-02-15T00:04:47.804Z,23.40
2023-02-15T00:07:20.005Z,23.50
2023-02-15T00:09:48.325Z,25.03
2023-02-15T00:12:17.436Z,22.90
2023-02-15T00:14:45.626Z,24.43
2023-02-15T00:17:13.499Z,23.70
2023-02-15T00:19:41.964Z,26.07
2023-02-15T00:22:10.107Z,25.90
2023-02-15T00:24:39.324Z,23.60
2023-02-15T00:27:07.247Z,25.90
2023-02-15T00:29:35.209Z,26.63
2023-02-15T00:32:03.081Z,22.90
2023-02-15T00:34:30.991Z,23.50
2023-02-15T00:36:58.876Z,25.57
2023-02-15T00:39:28.164Z,24.00
2023-02-15T00:41:57.577Z,23.17
2023-02-15T00:44:25.526Z,21.50
2023-02-15T00:46:53.553Z,22.93
2023-02-15T00:49:22.294Z,21.27
2023-02-15T00:51:50.176Z,22.77
2023-02-15T00:54:18.090Z,24.27
2023-02-15T00:56:45.979Z,21.73
2023-02-15T00:59:15.625Z,25.97
2023-02-15T01:01:43.532Z,23.77
2023-02-15T01:04:11.449Z,24.40
2023-02-15T01:06:39.371Z,23.80
2023-02-15T01:09:07.604Z,23.93
2023-02-15T01:11:35.535Z,24.30
2023-02-15T01:14:04.158Z,24.60
2023-02-15T01:16:35.076Z,25.83
2023-02-15T01:19:04.359Z,25.77
2023-02-15T01:21:35.329Z,21.53
2023-02-15T01:24:04.469Z,23.67
2023-02-15T01:26:32.576Z,24.27
2023-02-15T01:29:00.431Z,23.30
2023-02-15T01:31:28.392Z,23.10
2023-02-15T01:33:57.742Z,23.57
2023-02-15T01:36:25.653Z,25.30
2023-02-15T01:38:53.661Z,25.83
2023-02-15T01:41:28.595Z,21.40
2023-02-15T01:43:58.446Z,25.10
2023-02-15T01:46:35.476Z,22.53
2023-02-15T01:49:11.718Z,22.57
2023-02-15T01:51:42.449Z,28.33
2023-02-15T01:54:17.296Z,23.07
2023-02-15T01:56:45.418Z,20.10
2023-02-15T01:59:18.637Z,22.70
2023-02-15T02:01:46.972Z,26.53
2023-02-15T02:04:20.765Z,20.87
2023-02-15T02:06:51.059Z,19.77
2023-02-15T02:09:18.973Z,20.93
2023-02-15T02:11:48.911Z,21.43
2023-02-15T02:14:17.529Z,20.83
2023-02-15T02:16:53.939Z,21.40
2023-02-15T02:19:55.399Z,21.67
2023-02-15T02:23:10.499Z,21.13
2023-02-15T02:26:02.187Z,23.43
2023-02-15T02:28:57.507Z,20.83
2023-02-15T02:31:46.022Z,19.47
2023-02-15T02:34:20.918Z,21.27
2023-02-15T02:36:54.629Z,20.07
2023-02-15T02:39:31.004Z,20.10
2023-02-15T02:42:03.866Z,20.87
2023-02-15T02:44:43.841Z,21.63
2023-02-15T02:47:18.208Z,22.50
2023-02-15T02:49:48.169Z,20.87
2023-02-15T02:52:44.343Z,21.33
2023-02-15T02:55:17.609Z,21.80
2023-02-15T02:57:52.091Z,22.40
2023-02-15T03:00:22.111Z,21.73
2023-02-15T03:02:55.805Z,21.30
2023-02-15T03:05:27.754Z,20.83
2023-02-15T03:07:58.821Z,22.33
2023-02-15T03:10:28.303Z,23.67
2023-02-15T03:12:56.232Z,21.40
2023-02-15T03:15:26.616Z,24.10
2023-02-15T03:18:00.569Z,23.67
2023-02-15T03:20:32.806Z,24.53
2023-02-15T03:23:06.273Z,29.40
2023-02-15T03:25:37.881Z,23.77
2023-02-15T03:28:10.578Z,25.47
2023-02-15T03:30:41.252Z,28.10
2023-02-15T03:33:10.879Z,23.57
2023-02-15T03:35:47.672Z,22.13
2023-02-15T03:38:22.377Z,18.37
2023-02-15T03:41:09.447Z,20.83
2023-02-15T03:43:44.884Z,23.60
2023-02-15T03:46:17.603Z,18.97
2023-02-15T03:48:50.118Z,19.77
2023-02-15T03:51:38.889Z,20.43
2023-02-15T03:54:10.162Z,19.93
2023-02-15T03:56:40.841Z,19.13
2023-02-15T03:59:26.880Z,26.57
2023-02-15T04:02:07.100Z,25.93
2023-02-15T04:04:37.825Z,29.13
2023-02-15T04:07:09.313Z,23.17
2023-02-15T04:09:55.038Z,23.40
2023-02-15T04:12:23.048Z,30.40
2023-02-15T04:15:08.630Z,29.57
2023-02-15T04:17:38.157Z,26.00
2023-02-15T04:20:24.727Z,26.10
2023-02-15T04:23:11.392Z,30.53
2023-02-15T04:25:39.427Z,40.93
2023-02-15T04:28:08.527Z,27.60
2023-02-15T04:30:36.439Z,35.67
2023-02-15T04:33:04.681Z,33.63
2023-02-15T04:35:32.858Z,34.07
2023-02-15T04:38:02.280Z,35.53
2023-02-15T04:40:30.450Z,39.20
2023-02-15T04:42:58.319Z,49.60
2023-02-15T04:45:29.389Z,35.67
2023-02-15T04:47:57.605Z,32.90
2023-02-15T04:50:25.524Z,41.67
2023-02-15T04:52:53.490Z,45.90
2023-02-15T04:55:22.780Z,63.37
2023-02-15T04:57:50.791Z,34.87
2023-02-15T05:00:24.491Z,51.33
2023-02-15T05:02:52.456Z,54.27
2023-02-15T05:05:20.478Z,39.33
2023-02-15T05:07:48.387Z,56.57
2023-02-15T05:10:16.846Z,36.33
2023-02-15T05:12:46.168Z,33.93
2023-02-15T05:15:14.350Z,28.30
2023-02-15T05:17:42.237Z,33.10
2023-02-15T05:20:10.865Z,23.33
2023-02-15T05:22:38.748Z,31.13
2023-02-15T05:25:24.289Z,30.93
2023-02-15T05:28:11.201Z,27.17
2023-02-15T05:30:40.712Z,26.57
2023-02-15T05:33:09.095Z,23.27
2023-02-15T05:35:37.105Z,25.77
2023-02-15T05:38:05.055Z,28.57
2023-02-15T05:40:33.075Z,28.43
2023-02-15T05:43:02.331Z,28.47
2023-02-15T05:45:30.270Z,28.70
2023-02-15T05:47:59.031Z,27.83
2023-02-15T05:50:27.482Z,28.33
2023-02-15T05:52:55.426Z,27.57
2023-02-15T05:55:23.425Z,31.60
2023-02-15T05:57:51.318Z,30.83
2023-02-15T06:00:21.069Z,30.20
2023-02-15T06:02:48.931Z,35.13
2023-02-15T06:05:17.200Z,43.87
2023-02-15T06:07:46.086Z,30.53
2023-02-15T06:10:14.059Z,34.63
2023-02-15T06:12:41.964Z,66.37
2023-02-15T06:15:10.749Z,49.27
2023-02-15T06:17:40.057Z,36.73
2023-02-15T06:20:09.212Z,52.50
2023-02-15T06:22:37.218Z,44.83
2023-02-15T06:25:05.838Z,49.43
2023-02-15T06:27:34.858Z,45.07
2023-02-15T06:30:02.811Z,37.77
2023-02-15T06:32:31.012Z,32.83
2023-02-15T06:35:00.217Z,29.63
2023-02-15T06:37:28.166Z,30.07
2023-02-15T06:39:56.190Z,36.17
2023-02-15T06:42:24.515Z,36.50
2023-02-15T06:44:52.458Z,37.23
2023-02-15T06:47:20.311Z,55.23
2023-02-15T06:49:48.249Z,37.53
2023-02-15T06:52:17.565Z,34.93
2023-02-15T06:54:45.618Z,45.30
2023-02-15T06:57:13.584Z,41.73
2023-02-15T06:59:41.441Z,33.40
2023-02-15T07:02:10.841Z,35.93
2023-02-15T07:04:38.841Z,29.33
2023-02-15T07:07:10.271Z,29.87
2023-02-15T07:09:39.520Z,27.00
2023-02-15T07:12:25.065Z,27.20
2023-02-15T07:14:53.323Z,25.33
2023-02-15T07:17:35.376Z,37.40
2023-02-15T07:20:04.507Z,29.33
2023-02-15T07:22:32.470Z,37.93
2023-02-15T07:25:01.934Z,38.77
2023-02-15T07:27:29.866Z,24.70
2023-02-15T07:29:57.753Z,37.57
2023-02-15T07:32:25.826Z,30.63
2023-02-15T07:34:53.759Z,42.83
2023-02-15T07:37:21.668Z,27.53
2023-02-15T07:39:49.580Z,38.63
2023-02-15T07:42:20.733Z,36.23
2023-02-15T07:44:48.710Z,33.03
2023-02-15T07:47:16.566Z,29.63
2023-02-15T07:49:44.626Z,30.50
2023-02-15T07:52:12.609Z,34.70
2023-02-15T07:54:40.515Z,38.60
2023-02-15T07:57:08.434Z,37.83
2023-02-15T07:59:37.699Z,27.27
2023-02-15T08:02:08.024Z,39.40
2023-02-15T08:04:35.998Z,32.77
2023-02-15T08:07:05.106Z,35.30
2023-02-15T08:09:33.017Z,38.90
2023-02-15T08:12:00.877Z,32.27
2023-02-15T08:14:29.629Z,62.30
2023-02-15T08:17:03.608Z,41.53
2023-02-15T08:19:33.746Z,29.57
2023-02-15T08:22:04.038Z,22.13
2023-02-15T08:24:33.735Z,25.07
2023-02-15T08:27:05.933Z,22.77
2023-02-15T08:29:35.966Z,23.33
2023-02-15T08:32:07.531Z,56.70
2023-02-15T08:34:37.384Z,25.97
2023-02-15T08:37:06.879Z,23.03
2023-02-15T08:39:35.132Z,24.40
2023-02-15T08:42:03.359Z,23.20
2023-02-15T08:44:31.271Z,24.70
2023-02-15T08:47:03.775Z,27.07
2023-02-15T08:49:33.164Z,23.53
2023-02-15T08:52:01.545Z,25.83
2023-02-15T08:54:29.415Z,25.30
2023-02-15T08:57:07.947Z,28.00
2023-02-15T08:59:35.857Z,26.13
2023-02-15T09:02:04.172Z,37.70
2023-02-15T09:04:33.999Z,24.13
2023-02-15T09:07:02.985Z,24.60
2023-02-15T09:09:32.122Z,28.60
2023-02-15T09:12:00.149Z,29.80
2023-02-15T09:14:28.901Z,27.97
2023-02-15T09:16:57.009Z,26.87
2023-02-15T09:19:25.703Z,28.40
2023-02-15T09:21:55.390Z,29.10
2023-02-15T09:24:23.575Z,29.37
2023-02-15T09:26:51.604Z,24.03
2023-02-15T09:29:20.694Z,23.90
2023-02-15T09:31:51.268Z,25.43
2023-02-15T09:34:21.888Z,25.20
2023-02-15T09:36:50.743Z,29.13
2023-02-15T09:39:21.957Z,25.07
2023-02-15T09:42:29.967Z,25.40
2023-02-15T09:45:20.124Z,23.73
2023-02-15T09:48:08.133Z,28.00
2023-02-15T09:50:44.609Z,29.67
2023-02-15T09:53:30.299Z,26.97
2023-02-15T09:56:07.838Z,32.80
2023-02-15T09:58:46.452Z,25.17
2023-02-15T10:01:22.546Z,26.63
2023-02-15T10:04:04.879Z,24.97
2023-02-15T10:06:43.092Z,27.13
2023-02-15T10:09:30.492Z,49.40
2023-02-15T10:12:24.513Z,30.73
2023-02-15T10:15:14.162Z,30.97
2023-02-15T10:17:55.914Z,27.47
2023-02-15T10:20:32.869Z,25.57
2023-02-15T10:23:15.676Z,31.23
2023-02-15T10:25:49.000Z,28.47
2023-02-15T10:28:21.556Z,24.50
2023-02-15T10:30:51.927Z,26.73
2023-02-15T10:33:38.150Z,23.43
2023-02-15T10:36:18.185Z,24.33
2023-02-15T10:38:51.552Z,25.43
2023-02-15T10:41:35.385Z,21.80
2023-02-15T10:44:20.156Z,21.77
2023-02-15T10:47:30.199Z,23.73
2023-02-15T10:50:13.949Z,21.63
2023-02-15T10:52:56.773Z,23.63
2023-02-15T10:55:36.219Z,22.93
2023-02-15T10:58:14.282Z,23.83
2023-02-15T11:00:47.715Z,19.93
2023-02-15T11:03:36.301Z,22.33
2023-02-15T11:06:11.182Z,27.80
2023-02-15T11:08:44.365Z,25.20
2023-02-15T11:11:17.447Z,24.57
2023-02-15T11:13:49.252Z,22.23
2023-02-15T11:16:23.088Z,24.57
2023-02-15T11:18:57.146Z,21.87
2023-02-15T11:21:29.215Z,24.43
2023-02-15T11:23:57.866Z,22.27
2023-02-15T11:26:33.674Z,22.87
2023-02-15T11:29:09.537Z,26.30
2023-02-15T11:31:45.580Z,28.73
2023-02-15T11:34:20.099Z,23.47
2023-02-15T11:36:49.265Z,24.33
2023-02-15T11:39:20.151Z,26.63
2023-02-15T11:41:54.805Z,23.40
2023-02-15T11:44:25.738Z,29.60
2023-02-15T11:46:55.150Z,28.47
2023-02-15T11:49:26.716Z,22.07
2023-02-15T11:51:56.253Z,26.37
2023-02-15T11:54:29.326Z,24.00
2023-02-15T11:57:00.225Z,26.80
2023-02-15T11:59:34.045Z,24.47
2023-02-15T12:02:03.265Z,29.37
2023-02-15T12:04:35.485Z,28.33
2023-02-15T12:07:12.592Z,26.47
2023-02-15T12:09:48.268Z,23.70
2023-02-15T12:12:24.991Z,27.90
2023-02-15T12:14:56.009Z,24.67
2023-02-15T12:17:27.977Z,25.17
2023-02-15T12:19:58.707Z,24.73
2023-02-15T12:22:29.665Z,24.63
2023-02-15T12:25:00.475Z,23.63
2023-02-15T12:27:30.582Z,30.60
2023-02-15T12:30:04.095Z,24.57
2023-02-15T12:32:36.998Z,27.47
2023-02-15T12:35:11.627Z,25.90
2023-02-15T12:37:39.716Z,23.90
2023-02-15T12:40:22.288Z,24.50
2023-02-15T12:42:50.450Z,24.03
2023-02-15T12:45:27.245Z,26.77
2023-02-15T12:48:17.907Z,23.30
2023-02-15T12:50:54.409Z,27.27
2023-02-15T12:53:31.750Z,24.23
2023-02-15T12:56:01.718Z,25.53
2023-02-15T12:58:31.259Z,24.60
2023-02-15T13:01:13.175Z,24.03
2023-02-15T13:03:57.204Z,24.57
2023-02-15T13:06:25.831Z,26.27
2023-02-15T13:08:56.128Z,24.37
2023-02-15T13:11:30.964Z,24.83
2023-02-15T13:14:02.696Z,26.83
2023-02-15T13:16:34.610Z,27.97
2023-02-15T13:19:09.322Z,26.20
2023-02-15T13:21:41.324Z,27.13
2023-02-15T13:24:20.635Z,36.83
2023-02-15T13:26:49.584Z,29.83
2023-02-15T13:29:23.342Z,25.37
2023-02-15T13:31:53.247Z,32.43
2023-02-15T13:34:26.938Z,30.77
2023-02-15T13:37:03.319Z,30.47
2023-02-15T13:39:37.059Z,24.60
2023-02-15T13:42:17.504Z,28.07
2023-02-15T13:45:02.072Z,25.53
2023-02-15T13:47:37.373Z,26.40
2023-02-15T13:50:20.174Z,30.10
2023-02-15T13:52:55.292Z,26.77
2023-02-15T13:55:32.539Z,28.07
2023-02-15T13:58:33.718Z,27.40
2023-02-15T14:01:10.617Z,31.50
2023-02-15T14:04:23.384Z,25.53
2023-02-15T14:07:10.650Z,29.23
2023-02-15T14:09:50.570Z,29.70
2023-02-15T14:12:36.044Z,32.70
2023-02-15T14:15:28.198Z,33.83
2023-02-15T14:18:05.901Z,27.03
2023-02-15T14:20:45.119Z,25.83
2023-02-15T14:23:28.489Z,28.87
2023-02-15T14:26:00.463Z,26.93
2023-02-15T14:28:35.806Z,29.17
2023-02-15T14:31:07.613Z,25.43
2023-02-15T14:33:40.784Z,26.47
2023-02-15T14:36:10.853Z,25.67
2023-02-15T14:38:53.567Z,27.87
2023-02-15T14:41:24.145Z,28.83
2023-02-15T14:43:58.762Z,30.40
2023-02-15T14:46:33.335Z,44.63
2023-02-15T14:49:09.358Z,28.50
2023-02-15T14:51:59.719Z,27.67
2023-02-15T14:55:00.839Z,24.97
2023-02-15T14:57:38.576Z,23.10
2023-02-15T15:00:38.887Z,22.70
2023-02-15T15:03:23.589Z,24.43
2023-02-15T15:05:54.811Z,25.60
2023-02-15T15:08:28.974Z,27.77
2023-02-15T15:10:58.279Z,26.23
2023-02-15T15:13:43.187Z,26.37
2023-02-15T15:16:31.251Z,25.83
2023-02-15T15:19:00.445Z,19.90
2023-02-15T15:21:56.868Z,18.93
2023-02-15T15:24:51.816Z,20.00
2023-02-15T15:27:46.056Z,24.97
2023-02-15T15:31:02.665Z,23.10
2023-02-15T15:34:12.030Z,21.80
2023-02-15T15:37:00.937Z,21.00
2023-02-15T15:39:59.007Z,25.30
2023-02-15T15:42:34.934Z,19.13
2023-02-15T15:45:28.917Z,22.50
2023-02-15T15:48:08.053Z,23.20
2023-02-15T15:50:40.550Z,23.70
2023-02-15T15:53:17.186Z,25.93
2023-02-15T15:55:48.544Z,24.80
2023-02-15T15:58:20.280Z,29.73
2023-02-15T16:00:53.573Z,32.20
2023-02-15T16:03:24.245Z,32.57
2023-02-15T16:05:56.095Z,37.67
2023-02-15T16:08:32.444Z,33.30
2023-02-15T16:11:01.022Z,28.40
2023-02-15T16:13:29.003Z,31.47
2023-02-15T16:15:58.971Z,36.67
2023-02-15T16:18:29.008Z,33.70
2023-02-15T16:20:59.313Z,26.83
2023-02-15T16:23:52.302Z,25.87
2023-02-15T16:26:37.213Z,26.93
2023-02-15T16:29:16.659Z,31.37
2023-02-15T16:31:57.906Z,23.67
2023-02-15T16:34:28.926Z,28.07
2023-02-15T16:37:15.561Z,25.10
2023-02-15T16:39:45.638Z,22.97
2023-02-15T16:42:15.947Z,23.73
2023-02-15T16:44:44.524Z,24.87
2023-02-15T16:47:19.661Z,24.43
2023-02-15T16:49:50.510Z,19.93
2023-02-15T16:52:26.148Z,18.97
2023-02-15T16:54:58.282Z,20.20
2023-02-15T16:57:29.488Z,20.63
2023-02-15T16:59:59.954Z,21.73
2023-02-15T17:02:54.337Z,18.10
2023-02-15T17:05:21.908Z,20.63
2023-02-15T17:08:07.025Z,22.10
2023-02-15T17:10:37.549Z,19.90
2023-02-15T17:13:12.508Z,15.47
2023-02-15T17:15:42.308Z,18.43
2023-02-15T17:18:17.303Z,19.93
2023-02-15T17:20:46.364Z,16.30
2023-02-15T17:23:27.686Z,21.70
2023-02-15T17:25:56.077Z,16.17
2023-02-15T17:28:26.483Z,16.40
2023-02-15T17:30:56.710Z,19.80
2023-02-15T17:33:36.893Z,17.77
2023-02-15T17:36:10.846Z,19.80
2023-02-15T17:38:41.240Z,16.60
2023-02-15T17:41:09.748Z,17.13
2023-02-15T17:43:37.753Z,18.73
2023-02-15T17:46:06.024Z,14.43
2023-02-15T17:48:37.395Z,18.63
2023-02-15T17:51:08.096Z,20.57
2023-02-15T17:53:36.785Z,19.30
2023-02-15T17:56:10.925Z,17.37
2023-02-15T17:58:40.207Z,21.37
2023-02-15T18:01:30.982Z,20.90
2023-02-15T18:04:17.723Z,23.33
2023-02-15T18:07:03.505Z,27.97
2023-02-15T18:09:49.010Z,21.73
2023-02-15T18:12:21.784Z,21.97
2023-02-15T18:14:50.175Z,21.70
2023-02-15T18:17:18.746Z,20.43
2023-02-15T18:19:48.545Z,24.10
2023-02-15T18:22:18.624Z,20.13
2023-02-15T18:24:47.505Z,19.67
2023-02-15T18:27:16.733Z,19.53
2023-02-15T18:29:44.844Z,21.37
2023-02-15T18:32:18.866Z,23.87
2023-02-15T18:34:50.256Z,22.67
2023-02-15T18:37:21.642Z,19.63
2023-02-15T18:39:54.100Z,20.33
2023-02-15T18:42:27.556Z,20.53
2023-02-15T18:44:58.267Z,23.70
2023-02-15T18:47:26.910Z,17.13
2023-02-15T18:49:56.513Z,20.50
2023-02-15T18:52:28.412Z,19.27
2023-02-15T18:55:01.658Z,18.47
2023-02-15T18:57:30.842Z,16.77
2023-02-15T18:59:58.822Z,19.67
2023-02-15T19:02:28.112Z,18.20
2023-02-15T19:04:57.677Z,16.87
2023-02-15T19:07:29.847Z,19.83
2023-02-15T19:10:01.242Z,18.27
2023-02-15T19:12:29.648Z,17.60
2023-02-15T19:14:57.862Z,15.57
2023-02-15T19:17:26.130Z,19.80
2023-02-15T19:19:54.299Z,17.97
2023-02-15T19:22:27.475Z,20.23
2023-02-15T19:24:57.592Z,19.13
2023-02-15T19:27:28.516Z,19.87
2023-02-15T19:29:58.200Z,18.33
2023-02-15T19:32:26.252Z,15.80
2023-02-15T19:34:54.195Z,15.10
2023-02-15T19:37:33.537Z,18.93
2023-02-15T19:40:02.332Z,17.50
2023-02-15T19:42:32.128Z,17.07
2023-02-15T19:44:59.985Z,19.83
2023-02-15T19:47:28.888Z,17.50
2023-02-15T19:50:01.184Z,17.60
2023-02-15T19:52:30.394Z,19.60
2023-02-15T19:54:58.423Z,17.10
2023-02-15T19:57:27.550Z,15.13
2023-02-15T19:59:55.380Z,19.67
2023-02-15T20:02:23.320Z,21.57
2023-02-15T20:04:51.293Z,15.00
2023-02-15T20:07:25.842Z,19.53
2023-02-15T20:09:55.357Z,15.67
2023-02-15T20:12:25.131Z,16.10
2023-02-15T20:14:53.876Z,20.57
2023-02-15T20:17:21.818Z,19.73
2023-02-15T20:19:49.942Z,17.27
2023-02-15T20:22:23.421Z,19.23
2023-02-15T20:24:52.307Z,16.90
2023-02-15T20:27:21.714Z,23.40
2023-02-15T20:29:50.535Z,28.23
2023-02-15T20:32:18.698Z,16.77
2023-02-15T20:34:47.039Z,16.73
2023-02-15T20:37:23.486Z,16.70
2023-02-15T20:39:52.462Z,22.27
2023-02-15T20:42:22.218Z,15.20
2023-02-15T20:44:50.396Z,15.60
2023-02-15T20:47:18.416Z,15.13
2023-02-15T20:49:46.415Z,13.93
2023-02-15T20:52:20.311Z,16.27
2023-02-15T20:54:48.459Z,17.57
2023-02-15T20:57:16.813Z,14.77
2023-02-15T20:59:46.242Z,16.10
2023-02-15T21:02:18.983Z,12.23
2023-02-15T21:04:47.455Z,14.80
2023-02-15T21:07:17.607Z,16.53
2023-02-15T21:09:45.515Z,14.90
2023-02-15T21:12:15.776Z,13.80
2023-02-15T21:14:44.461Z,14.83
2023-02-15T21:17:15.022Z,15.37
2023-02-15T21:19:43.417Z,16.37
2023-02-15T21:22:14.376Z,14.87
2023-02-15T21:24:49.079Z,14.90
2023-02-15T21:27:17.346Z,15.00
2023-02-15T21:29:45.356Z,13.90
2023-02-15T21:32:14.700Z,20.17
2023-02-15T21:34:42.601Z,14.63
2023-02-15T21:37:27.605Z,14.57
2023-02-15T21:39:55.581Z,14.53
2023-02-15T21:42:41.134Z,12.73
2023-02-15T21:45:32.774Z,15.10
2023-02-15T21:48:02.276Z,14.50
2023-02-15T21:50:48.199Z,12.83
2023-02-15T21:53:22.282Z,13.40
2023-02-15T21:55:50.525Z,16.13
2023-02-15T21:58:20.991Z,15.33
2023-02-15T22:00:49.889Z,14.47
2023-02-15T22:03:19.228Z,14.17
2023-02-15T22:05:47.419Z,13.70
2023-02-15T22:08:16.263Z,16.33
2023-02-15T22:10:45.273Z,14.23
2023-02-15T22:13:16.331Z,14.23
2023-02-15T22:15:46.782Z,16.77
2023-02-15T22:18:23.346Z,16.47
2023-02-15T22:20:52.239Z,13.80
2023-02-15T22:23:20.155Z,16.30
2023-02-15T22:25:54.580Z,17.00
2023-02-15T22:28:27.130Z,17.03
2023-02-15T22:30:55.037Z,13.37
2023-02-15T22:33:27.551Z,15.50
2023-02-15T22:35:56.118Z,12.73
2023-02-15T22:38:24.112Z,14.77
2023-02-15T22:40:53.992Z,12.67
2023-02-15T22:43:31.586Z,13.87
2023-02-15T22:46:03.129Z,12.20
2023-02-15T22:48:32.375Z,14.60
2023-02-15T22:51:00.407Z,12.53
2023-02-15T22:53:28.434Z,13.43
2023-02-15T22:55:57.284Z,14.33
2023-02-15T22:58:28.833Z,13.03
2023-02-15T23:00:57.966Z,17.37
2023-02-15T23:03:28.675Z,15.67
2023-02-15T23:05:58.173Z,15.07
2023-02-15T23:08:26.376Z,13.70
2023-02-15T23:10:57.147Z,15.03
2023-02-15T23:13:27.862Z,16.23
2023-02-15T23:15:58.458Z,15.50
2023-02-15T23:18:29.575Z,16.03
2023-02-15T23:21:00.876Z,16.53
2023-02-15T23:23:31.874Z,17.00
2023-02-15T23:26:01.557Z,16.87
2023-02-15T23:28:32.517Z,13.27
2023-02-15T23:31:01.060Z,13.60
2023-02-15T23:33:32.411Z,15.43
2023-02-15T23:36:01.712Z,17.03
2023-02-15T23:38:31.843Z,14.37
2023-02-15T23:41:19.163Z,12.07
2023-02-15T23:43:50.489Z,12.83
2023-02-15T23:46:26.502Z,14.33
2023-02-15T23:48:54.907Z,16.23
2023-02-15T23:51:30.169Z,13.17
2023-02-15T23:53:58.889Z,17.13
2023-02-15T23:56:26.811Z,14.03
2023-02-15T23:58:54.732Z,13.90
